Lemon Cove, CA

1:10 AM PST on February 14, 2016 (GMT -0800)
HADS | | Change Station
CLOSE
Current Station
Personal Weather Station
Location: Lemon Cove, CA
Elevation: 540 ft
Nearby Weather Stations

Elev 540 ft 36.42 °N, 119.01 °W | Updated 1 hour ago

Fog
Fog
59.0 °F
Feels Like 59.0 °F
N
1.0
Wind Variable Wind from WSW
Gusts 0.0 mph

Today
High -- | Low -- °F
--% Chance of Precip.
Yesterday
High -- | Low -- °F
Precip. -- in
Pressure 30.29 in
Visibility 0.2 miles
Clouds Mostly Cloudy 200 ft
Mostly Cloudy 4200 ft
Dew Point 53.0 °F
Humidity 82%
Rainfall in
Snow Depth Not available.
6:45 AM 5:35 PM
Waxing Crescent, 39% visible
METAR KVIS 140856Z AUTO 00000KT 1/4SM FG BKN002 BKN042 09/09 A3026 RMK AO2 CIG 001V005 SLP257 T00940089 50004
Pressure 30.29 in
Visibility 0.2 miles
Clouds Mostly Cloudy 200 ft
Mostly Cloudy 4200 ft
Dew Point 53.0 °F
Humidity 82%
Rainfall in
Snow Depth Not available.
6:45 AM 5:35 PM
Waxing Crescent, 39% visible
METAR KVIS 140856Z AUTO 00000KT 1/4SM FG BKN002 BKN042 09/09 A3026 RMK AO2 CIG 001V005 SLP257 T00940089 50004

10-Day Weather Forecast

Almanac

Astronomy

Feb. 14, 2016 Rise Set
Actual Time
Civil Twilight
Nautical Twilight
Astronomical Twilight
Moon
Length of Visible Light
Length of Day
Tomorrow will be .
, % of the Moon is Illuminated

Today's Extremes

State Highs State Lows

Community

WunderPhotos

Upload Photos

1,892,763 photos uploaded!

WunderBlog® & News

Nearby

Air Quality

  Air Quality AQ Index Pollutant
Not available.

Snow Depth

Station Depth Elevation

Earthquake Activity

City Distance Mag. Time & Date
Minimum magnitude displayed is 2.5.

Coastal Water Temperatures

Place Temperature

Stations

Nearby Weather Stations

Station Location Temp. Windchill Dew Point Humidity Wind Precip. Elev Updated Type
                   

Watches & Warnings

There are currently no watches in effect.